sensor_id;sensor_type;location;lat;lon;timestamp;P1;durP1;ratioP1;P2;durP2;ratioP2
53108;SDS011;39007;53.090;6.074;2023-03-01T00:00:38;18.10;;;13.73;;
53108;SDS011;39007;53.090;6.074;2023-03-01T00:03:04;17.70;;;14.75;;
53108;SDS011;39007;53.090;6.074;2023-03-01T00:05:30;20.02;;;13.48;;
53108;SDS011;39007;53.090;6.074;2023-03-01T00:07:57;20.60;;;14.98;;
53108;SDS011;39007;53.090;6.074;2023-03-01T00:10:23;19.48;;;13.95;;
53108;SDS011;39007;53.090;6.074;2023-03-01T00:12:49;21.05;;;12.38;;
53108;SDS011;39007;53.090;6.074;2023-03-01T00:15:15;17.42;;;14.43;;
53108;SDS011;39007;53.090;6.074;2023-03-01T00:17:41;21.35;;;16.73;;
53108;SDS011;39007;53.090;6.074;2023-03-01T00:20:07;21.38;;;15.15;;
53108;SDS011;39007;53.090;6.074;2023-03-01T00:22:35;17.23;;;13.70;;
53108;SDS011;39007;53.090;6.074;2023-03-01T00:25:01;17.98;;;13.52;;
53108;SDS011;39007;53.090;6.074;2023-03-01T00:27:27;16.80;;;13.15;;
53108;SDS011;39007;53.090;6.074;2023-03-01T00:29:54;17.45;;;14.00;;
53108;SDS011;39007;53.090;6.074;2023-03-01T00:32:20;18.50;;;13.77;;
53108;SDS011;39007;53.090;6.074;2023-03-01T00:34:46;16.58;;;13.80;;
53108;SDS011;39007;53.090;6.074;2023-03-01T00:37:19;18.90;;;14.30;;
53108;SDS011;39007;53.090;6.074;2023-03-01T00:39:46;19.65;;;14.88;;
53108;SDS011;39007;53.090;6.074;2023-03-01T00:42:12;19.13;;;14.98;;
53108;SDS011;39007;53.090;6.074;2023-03-01T00:44:38;20.38;;;14.07;;
53108;SDS011;39007;53.090;6.074;2023-03-01T00:47:04;21.90;;;15.35;;
53108;SDS011;39007;53.090;6.074;2023-03-01T00:49:30;19.13;;;14.85;;
53108;SDS011;39007;53.090;6.074;2023-03-01T00:51:57;19.65;;;15.23;;
53108;SDS011;39007;53.090;6.074;2023-03-01T00:54:23;18.80;;;15.02;;
53108;SDS011;39007;53.090;6.074;2023-03-01T00:56:49;21.67;;;15.85;;
53108;SDS011;39007;53.090;6.074;2023-03-01T00:59:15;22.23;;;14.85;;
53108;SDS011;39007;53.090;6.074;2023-03-01T01:01:41;19.75;;;16.35;;
53108;SDS011;39007;53.090;6.074;2023-03-01T01:04:08;22.60;;;16.35;;
53108;SDS011;39007;53.090;6.074;2023-03-01T01:06:42;22.50;;;16.83;;
53108;SDS011;39007;53.090;6.074;2023-03-01T01:09:08;21.50;;;17.00;;
53108;SDS011;39007;53.090;6.074;2023-03-01T01:11:42;21.15;;;16.35;;
53108;SDS011;39007;53.090;6.074;2023-03-01T01:14:09;22.42;;;16.55;;
53108;SDS011;39007;53.090;6.074;2023-03-01T01:16:35;20.08;;;16.20;;
53108;SDS011;39007;53.090;6.074;2023-03-01T01:19:01;21.38;;;16.40;;
53108;SDS011;39007;53.090;6.074;2023-03-01T01:21:28;20.42;;;16.25;;
53108;SDS011;39007;53.090;6.074;2023-03-01T01:23:54;20.75;;;16.80;;
53108;SDS011;39007;53.090;6.074;2023-03-01T01:26:22;20.33;;;16.20;;
53108;SDS011;39007;53.090;6.074;2023-03-01T01:28:49;22.67;;;16.70;;
53108;SDS011;39007;53.090;6.074;2023-03-01T01:31:15;22.58;;;17.67;;
53108;SDS011;39007;53.090;6.074;2023-03-01T01:33:42;21.80;;;16.02;;
53108;SDS011;39007;53.090;6.074;2023-03-01T01:36:08;22.20;;;17.33;;
53108;SDS011;39007;53.090;6.074;2023-03-01T01:38:35;23.30;;;17.35;;
53108;SDS011;39007;53.090;6.074;2023-03-01T01:41:01;20.08;;;16.20;;
53108;SDS011;39007;53.090;6.074;2023-03-01T01:43:29;23.98;;;17.58;;
53108;SDS011;39007;53.090;6.074;2023-03-01T01:45:59;21.88;;;16.55;;
53108;SDS011;39007;53.090;6.074;2023-03-01T01:48:28;23.92;;;16.67;;
53108;SDS011;39007;53.090;6.074;2023-03-01T01:51:05;22.55;;;17.45;;
53108;SDS011;39007;53.090;6.074;2023-03-01T01:53:32;24.25;;;17.50;;
53108;SDS011;39007;53.090;6.074;2023-03-01T01:55:58;23.98;;;16.98;;
53108;SDS011;39007;53.090;6.074;2023-03-01T01:58:26;23.65;;;16.92;;
53108;SDS011;39007;53.090;6.074;2023-03-01T02:00:53;23.15;;;16.85;;
53108;SDS011;39007;53.090;6.074;2023-03-01T02:03:24;23.02;;;17.77;;
53108;SDS011;39007;53.090;6.074;2023-03-01T02:05:57;23.40;;;18.15;;
53108;SDS011;39007;53.090;6.074;2023-03-01T02:08:25;23.55;;;17.52;;
53108;SDS011;39007;53.090;6.074;2023-03-01T02:10:52;28.45;;;17.13;;
53108;SDS011;39007;53.090;6.074;2023-03-01T02:13:20;21.70;;;15.50;;
53108;SDS011;39007;53.090;6.074;2023-03-01T02:15:47;17.60;;;13.35;;
53108;SDS011;39007;53.090;6.074;2023-03-01T02:18:14;16.33;;;12.88;;
53108;SDS011;39007;53.090;6.074;2023-03-01T02:23:17;15.38;;;12.13;;
53108;SDS011;39007;53.090;6.074;2023-03-01T02:30:42;15.75;;;12.45;;
53108;SDS011;39007;53.090;6.074;2023-03-01T02:33:28;14.80;;;11.32;;
53108;SDS011;39007;53.090;6.074;2023-03-01T02:35:58;16.50;;;11.98;;
53108;SDS011;39007;53.090;6.074;2023-03-01T02:38:25;19.63;;;12.55;;
53108;SDS011;39007;53.090;6.074;2023-03-01T02:40:51;37.97;;;14.55;;
53108;SDS011;39007;53.090;6.074;2023-03-01T02:43:18;94.63;;;16.20;;
53108;SDS011;39007;53.090;6.074;2023-03-01T02:45:49;105.88;;;17.13;;
53108;SDS011;39007;53.090;6.074;2023-03-01T02:48:15;132.57;;;20.33;;
53108;SDS011;39007;53.090;6.074;2023-03-01T02:53:10;135.82;;;17.75;;
53108;SDS011;39007;53.090;6.074;2023-03-01T02:55:38;63.97;;;16.77;;
53108;SDS011;39007;53.090;6.074;2023-03-01T02:58:04;73.38;;;16.02;;
53108;SDS011;39007;53.090;6.074;2023-03-01T03:00:35;82.28;;;16.27;;
53108;SDS011;39007;53.090;6.074;2023-03-01T03:03:05;182.63;;;17.15;;
53108;SDS011;39007;53.090;6.074;2023-03-01T03:05:31;54.95;;;14.73;;
53108;SDS011;39007;53.090;6.074;2023-03-01T03:07:58;103.38;;;17.42;;
53108;SDS011;39007;53.090;6.074;2023-03-01T03:10:26;38.70;;;16.60;;
53108;SDS011;39007;53.090;6.074;2023-03-01T03:12:56;130.35;;;18.15;;
53108;SDS011;39007;53.090;6.074;2023-03-01T03:15:24;140.90;;;20.10;;
53108;SDS011;39007;53.090;6.074;2023-03-01T03:17:50;223.65;;;21.98;;
53108;SDS011;39007;53.090;6.074;2023-03-01T03:20:18;126.50;;;21.70;;
53108;SDS011;39007;53.090;6.074;2023-03-01T03:22:46;44.40;;;19.58;;
53108;SDS011;39007;53.090;6.074;2023-03-01T03:25:12;103.90;;;21.02;;
53108;SDS011;39007;53.090;6.074;2023-03-01T03:27:39;80.28;;;19.75;;
53108;SDS011;39007;53.090;6.074;2023-03-01T03:30:07;59.42;;;19.40;;
53108;SDS011;39007;53.090;6.074;2023-03-01T03:32:36;93.65;;;21.58;;
53108;SDS011;39007;53.090;6.074;2023-03-01T03:35:03;34.65;;;20.20;;
53108;SDS011;39007;53.090;6.074;2023-03-01T03:37:43;32.88;;;22.27;;
53108;SDS011;39007;53.090;6.074;2023-03-01T03:40:28;57.90;;;21.98;;
53108;SDS011;39007;53.090;6.074;2023-03-01T03:42:54;72.55;;;22.13;;
53108;SDS011;39007;53.090;6.074;2023-03-01T03:45:21;57.65;;;22.08;;
53108;SDS011;39007;53.090;6.074;2023-03-01T03:47:47;61.22;;;21.00;;
53108;SDS011;39007;53.090;6.074;2023-03-01T03:50:14;75.97;;;20.63;;
53108;SDS011;39007;53.090;6.074;2023-03-01T03:52:40;33.40;;;19.48;;
53108;SDS011;39007;53.090;6.074;2023-03-01T03:55:07;64.97;;;20.73;;
53108;SDS011;39007;53.090;6.074;2023-03-01T03:57:39;76.95;;;21.35;;
53108;SDS011;39007;53.090;6.074;2023-03-01T04:00:05;53.03;;;21.45;;
53108;SDS011;39007;53.090;6.074;2023-03-01T04:02:40;29.50;;;20.05;;
53108;SDS011;39007;53.090;6.074;2023-03-01T04:05:06;34.08;;;22.15;;
53108;SDS011;39007;53.090;6.074;2023-03-01T04:07:33;58.28;;;21.05;;
53108;SDS011;39007;53.090;6.074;2023-03-01T04:09:59;112.63;;;22.33;;
53108;SDS011;39007;53.090;6.074;2023-03-01T04:12:25;102.50;;;23.63;;
53108;SDS011;39007;53.090;6.074;2023-03-01T04:14:51;140.52;;;23.05;;
53108;SDS011;39007;53.090;6.074;2023-03-01T04:17:18;118.78;;;21.60;;
53108;SDS011;39007;53.090;6.074;2023-03-01T04:19:44;104.90;;;20.88;;
53108;SDS011;39007;53.090;6.074;2023-03-01T04:22:13;97.90;;;21.88;;
53108;SDS011;39007;53.090;6.074;2023-03-01T04:24:43;69.82;;;21.25;;
53108;SDS011;39007;53.090;6.074;2023-03-01T04:27:09;75.20;;;20.90;;
53108;SDS011;39007;53.090;6.074;2023-03-01T04:29:36;56.08;;;19.35;;
53108;SDS011;39007;53.090;6.074;2023-03-01T04:32:02;54.40;;;20.90;;
53108;SDS011;39007;53.090;6.074;2023-03-01T04:34:28;43.90;;;20.67;;
53108;SDS011;39007;53.090;6.074;2023-03-01T04:36:54;85.82;;;20.55;;
53108;SDS011;39007;53.090;6.074;2023-03-01T04:39:21;84.05;;;21.63;;
53108;SDS011;39007;53.090;6.074;2023-03-01T04:41:47;84.88;;;20.88;;
53108;SDS011;39007;53.090;6.074;2023-03-01T04:44:13;100.80;;;20.63;;
53108;SDS011;39007;53.090;6.074;2023-03-01T04:46:39;112.10;;;22.00;;
53108;SDS011;39007;53.090;6.074;2023-03-01T04:49:05;177.82;;;20.63;;
53108;SDS011;39007;53.090;6.074;2023-03-01T04:51:31;233.88;;;21.98;;
53108;SDS011;39007;53.090;6.074;2023-03-01T04:53:57;130.73;;;20.20;;
53108;SDS011;39007;53.090;6.074;2023-03-01T04:56:25;194.30;;;22.23;;
53108;SDS011;39007;53.090;6.074;2023-03-01T04:58:53;107.43;;;18.85;;
53108;SDS011;39007;53.090;6.074;2023-03-01T05:01:19;174.30;;;19.27;;
53108;SDS011;39007;53.090;6.074;2023-03-01T05:03:47;161.13;;;18.45;;
53108;SDS011;39007;53.090;6.074;2023-03-01T05:06:13;147.88;;;17.85;;
53108;SDS011;39007;53.090;6.074;2023-03-01T05:08:39;130.05;;;17.45;;
53108;SDS011;39007;53.090;6.074;2023-03-01T05:11:06;133.93;;;16.25;;
53108;SDS011;39007;53.090;6.074;2023-03-01T05:13:34;68.43;;;15.95;;
53108;SDS011;39007;53.090;6.074;2023-03-01T05:16:01;86.75;;;15.32;;
53108;SDS011;39007;53.090;6.074;2023-03-01T05:18:28;63.38;;;14.48;;
53108;SDS011;39007;53.090;6.074;2023-03-01T05:20:55;41.97;;;14.23;;
53108;SDS011;39007;53.090;6.074;2023-03-01T05:23:23;24.00;;;13.75;;
53108;SDS011;39007;53.090;6.074;2023-03-01T05:25:49;47.17;;;13.13;;
53108;SDS011;39007;53.090;6.074;2023-03-01T05:28:17;22.08;;;12.07;;
53108;SDS011;39007;53.090;6.074;2023-03-01T05:30:44;39.70;;;12.98;;
53108;SDS011;39007;53.090;6.074;2023-03-01T05:33:10;26.30;;;11.65;;
53108;SDS011;39007;53.090;6.074;2023-03-01T05:35:41;16.80;;;11.50;;
53108;SDS011;39007;53.090;6.074;2023-03-01T05:38:08;15.68;;;11.15;;
53108;SDS011;39007;53.090;6.074;2023-03-01T05:40:38;14.50;;;11.30;;
53108;SDS011;39007;53.090;6.074;2023-03-01T05:43:04;14.93;;;11.40;;
53108;SDS011;39007;53.090;6.074;2023-03-01T05:45:30;13.82;;;10.88;;
53108;SDS011;39007;53.090;6.074;2023-03-01T05:47:57;21.30;;;11.52;;
53108;SDS011;39007;53.090;6.074;2023-03-01T05:50:27;22.83;;;11.80;;
53108;SDS011;39007;53.090;6.074;2023-03-01T05:52:58;29.95;;;12.25;;
53108;SDS011;39007;53.090;6.074;2023-03-01T05:55:24;27.10;;;12.35;;
53108;SDS011;39007;53.090;6.074;2023-03-01T05:57:51;28.80;;;11.77;;
53108;SDS011;39007;53.090;6.074;2023-03-01T06:00:18;44.15;;;11.93;;
53108;SDS011;39007;53.090;6.074;2023-03-01T06:02:44;24.05;;;12.23;;
53108;SDS011;39007;53.090;6.074;2023-03-01T06:05:11;16.92;;;11.73;;
53108;SDS011;39007;53.090;6.074;2023-03-01T06:07:38;23.20;;;11.55;;
53108;SDS011;39007;53.090;6.074;2023-03-01T06:10:04;15.05;;;11.85;;
53108;SDS011;39007;53.090;6.074;2023-03-01T06:12:31;16.20;;;11.65;;
53108;SDS011;39007;53.090;6.074;2023-03-01T06:14:58;13.80;;;10.75;;
53108;SDS011;39007;53.090;6.074;2023-03-01T06:17:24;12.70;;;10.25;;
53108;SDS011;39007;53.090;6.074;2023-03-01T06:19:50;13.25;;;10.43;;
53108;SDS011;39007;53.090;6.074;2023-03-01T06:22:16;13.05;;;9.57;;
53108;SDS011;39007;53.090;6.074;2023-03-01T06:24:42;14.80;;;10.88;;
53108;SDS011;39007;53.090;6.074;2023-03-01T06:27:08;14.20;;;10.88;;
53108;SDS011;39007;53.090;6.074;2023-03-01T06:29:34;14.60;;;11.18;;
53108;SDS011;39007;53.090;6.074;2023-03-01T06:32:00;15.13;;;11.13;;
53108;SDS011;39007;53.090;6.074;2023-03-01T06:34:27;15.27;;;11.98;;
53108;SDS011;39007;53.090;6.074;2023-03-01T06:36:53;14.52;;;12.02;;
53108;SDS011;39007;53.090;6.074;2023-03-01T06:39:19;14.32;;;11.07;;
53108;SDS011;39007;53.090;6.074;2023-03-01T06:41:45;14.35;;;11.02;;
53108;SDS011;39007;53.090;6.074;2023-03-01T06:44:12;14.80;;;10.90;;
53108;SDS011;39007;53.090;6.074;2023-03-01T06:46:39;14.60;;;10.70;;
53108;SDS011;39007;53.090;6.074;2023-03-01T06:49:05;14.30;;;10.52;;
53108;SDS011;39007;53.090;6.074;2023-03-01T06:51:34;14.88;;;11.05;;
53108;SDS011;39007;53.090;6.074;2023-03-01T06:54:01;14.25;;;11.18;;
53108;SDS011;39007;53.090;6.074;2023-03-01T06:56:27;14.57;;;11.48;;
53108;SDS011;39007;53.090;6.074;2023-03-01T06:58:53;18.23;;;11.52;;
53108;SDS011;39007;53.090;6.074;2023-03-01T07:01:19;13.85;;;10.90;;
53108;SDS011;39007;53.090;6.074;2023-03-01T07:03:45;16.95;;;10.95;;
53108;SDS011;39007;53.090;6.074;2023-03-01T07:06:11;16.58;;;10.98;;
53108;SDS011;39007;53.090;6.074;2023-03-01T07:08:37;15.40;;;12.32;;
53108;SDS011;39007;53.090;6.074;2023-03-01T07:11:03;13.70;;;10.70;;
53108;SDS011;39007;53.090;6.074;2023-03-01T07:13:30;13.73;;;10.98;;
53108;SDS011;39007;53.090;6.074;2023-03-01T07:15:57;15.05;;;11.18;;
53108;SDS011;39007;53.090;6.074;2023-03-01T07:18:23;14.82;;;11.43;;
53108;SDS011;39007;53.090;6.074;2023-03-01T07:20:49;13.13;;;10.50;;
53108;SDS011;39007;53.090;6.074;2023-03-01T07:23:15;13.00;;;10.20;;
53108;SDS011;39007;53.090;6.074;2023-03-01T07:25:41;14.15;;;10.45;;
53108;SDS011;39007;53.090;6.074;2023-03-01T07:28:07;12.52;;;10.05;;
53108;SDS011;39007;53.090;6.074;2023-03-01T07:30:33;13.15;;;9.73;;
53108;SDS011;39007;53.090;6.074;2023-03-01T07:32:59;14.98;;;10.32;;
53108;SDS011;39007;53.090;6.074;2023-03-01T07:35:26;13.05;;;10.68;;
53108;SDS011;39007;53.090;6.074;2023-03-01T07:37:52;13.73;;;10.30;;
53108;SDS011;39007;53.090;6.074;2023-03-01T07:40:19;13.18;;;10.15;;
53108;SDS011;39007;53.090;6.074;2023-03-01T07:42:45;13.43;;;10.35;;
53108;SDS011;39007;53.090;6.074;2023-03-01T07:45:11;14.48;;;11.27;;
53108;SDS011;39007;53.090;6.074;2023-03-01T07:47:38;14.10;;;11.05;;
53108;SDS011;39007;53.090;6.074;2023-03-01T07:50:04;14.77;;;11.45;;
53108;SDS011;39007;53.090;6.074;2023-03-01T07:52:31;14.80;;;11.43;;
53108;SDS011;39007;53.090;6.074;2023-03-01T07:54:57;15.43;;;11.00;;
53108;SDS011;39007;53.090;6.074;2023-03-01T07:57:23;15.07;;;11.55;;
53108;SDS011;39007;53.090;6.074;2023-03-01T07:59:49;15.95;;;11.93;;
53108;SDS011;39007;53.090;6.074;2023-03-01T08:02:15;14.30;;;11.30;;
53108;SDS011;39007;53.090;6.074;2023-03-01T08:04:41;15.52;;;11.88;;
53108;SDS011;39007;53.090;6.074;2023-03-01T08:07:07;16.02;;;12.38;;
53108;SDS011;39007;53.090;6.074;2023-03-01T08:09:34;16.98;;;13.57;;
53108;SDS011;39007;53.090;6.074;2023-03-01T08:12:01;18.13;;;13.27;;
53108;SDS011;39007;53.090;6.074;2023-03-01T08:14:29;20.23;;;15.25;;
53108;SDS011;39007;53.090;6.074;2023-03-01T08:16:55;21.00;;;16.60;;
53108;SDS011;39007;53.090;6.074;2023-03-01T08:19:21;27.25;;;21.75;;
53108;SDS011;39007;53.090;6.074;2023-03-01T08:21:47;27.35;;;20.17;;
53108;SDS011;39007;53.090;6.074;2023-03-01T08:24:13;24.38;;;18.23;;
53108;SDS011;39007;53.090;6.074;2023-03-01T08:26:39;24.75;;;18.05;;
53108;SDS011;39007;53.090;6.074;2023-03-01T08:29:05;35.53;;;23.30;;
53108;SDS011;39007;53.090;6.074;2023-03-01T08:31:36;33.58;;;22.67;;
53108;SDS011;39007;53.090;6.074;2023-03-01T08:34:04;30.05;;;22.00;;
53108;SDS011;39007;53.090;6.074;2023-03-01T08:36:35;31.77;;;22.75;;
53108;SDS011;39007;53.090;6.074;2023-03-01T08:39:02;47.03;;;29.80;;
53108;SDS011;39007;53.090;6.074;2023-03-01T08:41:28;40.92;;;28.90;;
53108;SDS011;39007;53.090;6.074;2023-03-01T08:43:54;35.88;;;26.17;;
53108;SDS011;39007;53.090;6.074;2023-03-01T08:46:24;34.33;;;23.95;;
53108;SDS011;39007;53.090;6.074;2023-03-01T08:48:50;36.90;;;25.30;;
53108;SDS011;39007;53.090;6.074;2023-03-01T08:51:17;37.50;;;29.17;;
53108;SDS011;39007;53.090;6.074;2023-03-01T08:53:43;36.75;;;28.27;;
53108;SDS011;39007;53.090;6.074;2023-03-01T08:56:09;33.20;;;24.40;;
53108;SDS011;39007;53.090;6.074;2023-03-01T08:58:36;34.38;;;24.50;;
53108;SDS011;39007;53.090;6.074;2023-03-01T09:01:06;36.58;;;26.63;;
53108;SDS011;39007;53.090;6.074;2023-03-01T09:03:32;35.85;;;27.77;;
53108;SDS011;39007;53.090;6.074;2023-03-01T09:06:02;34.60;;;26.45;;
53108;SDS011;39007;53.090;6.074;2023-03-01T09:08:28;36.65;;;27.40;;
53108;SDS011;39007;53.090;6.074;2023-03-01T09:10:55;35.85;;;26.65;;
53108;SDS011;39007;53.090;6.074;2023-03-01T09:13:21;33.47;;;26.30;;
53108;SDS011;39007;53.090;6.074;2023-03-01T09:15:52;34.60;;;26.80;;
53108;SDS011;39007;53.090;6.074;2023-03-01T09:18:18;32.85;;;26.40;;
53108;SDS011;39007;53.090;6.074;2023-03-01T09:20:44;34.22;;;25.90;;
53108;SDS011;39007;53.090;6.074;2023-03-01T09:23:10;36.65;;;25.98;;
53108;SDS011;39007;53.090;6.074;2023-03-01T09:25:36;33.15;;;26.55;;
53108;SDS011;39007;53.090;6.074;2023-03-01T09:28:03;31.88;;;25.75;;
53108;SDS011;39007;53.090;6.074;2023-03-01T09:30:29;31.42;;;26.00;;
53108;SDS011;39007;53.090;6.074;2023-03-01T09:32:56;33.53;;;25.15;;
53108;SDS011;39007;53.090;6.074;2023-03-01T09:35:22;28.58;;;24.08;;
53108;SDS011;39007;53.090;6.074;2023-03-01T09:37:48;30.50;;;24.20;;
53108;SDS011;39007;53.090;6.074;2023-03-01T09:40:19;33.42;;;22.90;;
53108;SDS011;39007;53.090;6.074;2023-03-01T09:42:46;30.92;;;25.00;;
53108;SDS011;39007;53.090;6.074;2023-03-01T09:45:18;28.75;;;22.00;;
53108;SDS011;39007;53.090;6.074;2023-03-01T09:47:46;28.00;;;21.65;;
53108;SDS011;39007;53.090;6.074;2023-03-01T09:50:20;26.75;;;21.48;;
53108;SDS011;39007;53.090;6.074;2023-03-01T09:53:00;22.83;;;17.30;;
53108;SDS011;39007;53.090;6.074;2023-03-01T09:55:30;23.92;;;17.80;;
53108;SDS011;39007;53.090;6.074;2023-03-01T10:00:42;23.85;;;17.85;;
53108;SDS011;39007;53.090;6.074;2023-03-01T10:11:04;18.02;;;14.30;;
53108;SDS011;39007;53.090;6.074;2023-03-01T10:16:23;21.52;;;16.42;;
53108;SDS011;39007;53.090;6.074;2023-03-01T10:18:53;21.08;;;15.40;;
53108;SDS011;39007;53.090;6.074;2023-03-01T10:21:20;20.80;;;14.57;;
53108;SDS011;39007;53.090;6.074;2023-03-01T10:23:49;17.35;;;13.15;;
53108;SDS011;39007;53.090;6.074;2023-03-01T10:29:04;18.80;;;13.85;;
53108;SDS011;39007;53.090;6.074;2023-03-01T10:31:37;14.73;;;12.15;;
53108;SDS011;39007;53.090;6.074;2023-03-01T10:34:17;15.20;;;11.95;;
53108;SDS011;39007;53.090;6.074;2023-03-01T10:36:44;16.95;;;10.75;;
53108;SDS011;39007;53.090;6.074;2023-03-01T10:39:20;16.65;;;11.25;;
53108;SDS011;39007;53.090;6.074;2023-03-01T10:41:59;15.60;;;10.90;;
53108;SDS011;39007;53.090;6.074;2023-03-01T10:44:43;14.80;;;10.65;;
53108;SDS011;39007;53.090;6.074;2023-03-01T10:47:20;15.38;;;11.57;;
53108;SDS011;39007;53.090;6.074;2023-03-01T10:49:51;14.10;;;11.20;;
53108;SDS011;39007;53.090;6.074;2023-03-01T10:52:18;14.82;;;10.45;;
53108;SDS011;39007;53.090;6.074;2023-03-01T10:55:23;14.82;;;10.50;;
53108;SDS011;39007;53.090;6.074;2023-03-01T10:57:38;17.42;;;10.15;;
53108;SDS011;39007;53.090;6.074;2023-03-01T11:02:47;14.52;;;11.30;;
53108;SDS011;39007;53.090;6.074;2023-03-01T11:10:17;14.32;;;11.65;;
53108;SDS011;39007;53.090;6.074;2023-03-01T11:12:43;15.00;;;12.45;;
53108;SDS011;39007;53.090;6.074;2023-03-01T11:15:19;16.00;;;13.18;;
53108;SDS011;39007;53.090;6.074;2023-03-01T11:17:45;14.48;;;11.80;;
53108;SDS011;39007;53.090;6.074;2023-03-01T11:22:38;17.83;;;11.50;;
53108;SDS011;39007;53.090;6.074;2023-03-01T11:25:08;15.27;;;12.18;;
53108;SDS011;39007;53.090;6.074;2023-03-01T11:27:44;13.38;;;11.38;;
53108;SDS011;39007;53.090;6.074;2023-03-01T11:30:35;14.80;;;11.65;;
53108;SDS011;39007;53.090;6.074;2023-03-01T11:35:54;16.77;;;11.75;;
53108;SDS011;39007;53.090;6.074;2023-03-01T11:38:25;15.75;;;12.23;;
53108;SDS011;39007;53.090;6.074;2023-03-01T11:41:03;18.42;;;12.15;;
53108;SDS011;39007;53.090;6.074;2023-03-01T11:48:50;15.43;;;12.02;;
53108;SDS011;39007;53.090;6.074;2023-03-01T11:51:21;15.23;;;10.75;;
53108;SDS011;39007;53.090;6.074;2023-03-01T11:53:53;16.02;;;11.57;;
53108;SDS011;39007;53.090;6.074;2023-03-01T11:56:41;16.55;;;12.15;;
53108;SDS011;39007;53.090;6.074;2023-03-01T12:04:30;14.07;;;11.40;;
53108;SDS011;39007;53.090;6.074;2023-03-01T12:07:03;18.08;;;11.38;;
53108;SDS011;39007;53.090;6.074;2023-03-01T12:12:01;17.02;;;11.85;;
53108;SDS011;39007;53.090;6.074;2023-03-01T12:30:19;16.77;;;12.98;;
53108;SDS011;39007;53.090;6.074;2023-03-01T12:38:21;17.25;;;12.88;;
53108;SDS011;39007;53.090;6.074;2023-03-01T12:45:30;16.55;;;12.73;;
53108;SDS011;39007;53.090;6.074;2023-03-01T12:48:02;21.17;;;12.80;;
53108;SDS011;39007;53.090;6.074;2023-03-01T12:50:42;17.13;;;13.13;;
53108;SDS011;39007;53.090;6.074;2023-03-01T12:53:19;16.95;;;11.70;;
53108;SDS011;39007;53.090;6.074;2023-03-01T12:55:48;16.23;;;12.57;;
53108;SDS011;39007;53.090;6.074;2023-03-01T12:58:23;15.82;;;11.80;;
53108;SDS011;39007;53.090;6.074;2023-03-01T13:00:59;14.75;;;12.40;;
53108;SDS011;39007;53.090;6.074;2023-03-01T13:06:06;14.95;;;12.25;;
53108;SDS011;39007;53.090;6.074;2023-03-01T13:08:36;16.50;;;13.15;;
53108;SDS011;39007;53.090;6.074;2023-03-01T13:11:06;14.77;;;12.57;;
53108;SDS011;39007;53.090;6.074;2023-03-01T13:13:33;16.17;;;13.10;;
53108;SDS011;39007;53.090;6.074;2023-03-01T13:16:20;15.95;;;12.32;;
53108;SDS011;39007;53.090;6.074;2023-03-01T13:18:45;16.45;;;13.60;;
53108;SDS011;39007;53.090;6.074;2023-03-01T13:21:11;15.68;;;13.10;;
53108;SDS011;39007;53.090;6.074;2023-03-01T13:23:38;17.27;;;14.27;;
53108;SDS011;39007;53.090;6.074;2023-03-01T13:26:12;17.77;;;13.82;;
53108;SDS011;39007;53.090;6.074;2023-03-01T13:31:09;14.00;;;11.85;;
53108;SDS011;39007;53.090;6.074;2023-03-01T13:33:54;17.90;;;13.48;;
53108;SDS011;39007;53.090;6.074;2023-03-01T13:38:56;16.35;;;13.63;;
53108;SDS011;39007;53.090;6.074;2023-03-01T13:46:50;16.30;;;13.02;;
53108;SDS011;39007;53.090;6.074;2023-03-01T13:49:17;16.13;;;12.60;;
53108;SDS011;39007;53.090;6.074;2023-03-01T13:51:46;15.88;;;13.38;;
53108;SDS011;39007;53.090;6.074;2023-03-01T13:54:12;17.13;;;12.70;;
53108;SDS011;39007;53.090;6.074;2023-03-01T13:56:39;16.13;;;13.07;;
53108;SDS011;39007;53.090;6.074;2023-03-01T13:59:12;16.50;;;13.35;;
53108;SDS011;39007;53.090;6.074;2023-03-01T14:01:38;16.13;;;12.48;;
53108;SDS011;39007;53.090;6.074;2023-03-01T14:04:24;14.95;;;11.65;;
53108;SDS011;39007;53.090;6.074;2023-03-01T14:06:52;14.95;;;11.90;;
53108;SDS011;39007;53.090;6.074;2023-03-01T14:09:33;13.45;;;10.00;;
53108;SDS011;39007;53.090;6.074;2023-03-01T14:19:29;13.07;;;10.90;;
53108;SDS011;39007;53.090;6.074;2023-03-01T14:22:04;13.93;;;10.60;;
53108;SDS011;39007;53.090;6.074;2023-03-01T14:24:39;17.75;;;11.70;;
53108;SDS011;39007;53.090;6.074;2023-03-01T14:27:12;13.50;;;11.98;;
53108;SDS011;39007;53.090;6.074;2023-03-01T14:29:39;18.90;;;12.05;;
53108;SDS011;39007;53.090;6.074;2023-03-01T14:32:25;13.70;;;10.88;;
53108;SDS011;39007;53.090;6.074;2023-03-01T14:34:51;15.95;;;11.60;;
53108;SDS011;39007;53.090;6.074;2023-03-01T14:37:18;17.48;;;12.63;;
53108;SDS011;39007;53.090;6.074;2023-03-01T14:39:44;16.00;;;12.50;;
53108;SDS011;39007;53.090;6.074;2023-03-01T14:42:11;16.60;;;12.68;;
53108;SDS011;39007;53.090;6.074;2023-03-01T14:44:38;18.90;;;12.00;;
53108;SDS011;39007;53.090;6.074;2023-03-01T14:47:10;14.63;;;11.30;;
53108;SDS011;39007;53.090;6.074;2023-03-01T14:49:37;13.77;;;11.57;;
53108;SDS011;39007;53.090;6.074;2023-03-01T14:52:07;14.73;;;12.05;;
53108;SDS011;39007;53.090;6.074;2023-03-01T14:57:05;13.70;;;10.60;;
53108;SDS011;39007;53.090;6.074;2023-03-01T14:59:33;14.20;;;10.88;;
53108;SDS011;39007;53.090;6.074;2023-03-01T15:01:59;14.30;;;11.07;;
53108;SDS011;39007;53.090;6.074;2023-03-01T15:04:26;13.43;;;11.30;;
53108;SDS011;39007;53.090;6.074;2023-03-01T15:06:53;15.27;;;10.70;;
53108;SDS011;39007;53.090;6.074;2023-03-01T15:09:20;14.27;;;11.52;;
53108;SDS011;39007;53.090;6.074;2023-03-01T15:11:46;13.77;;;11.73;;
53108;SDS011;39007;53.090;6.074;2023-03-01T15:17:18;16.98;;;11.65;;
53108;SDS011;39007;53.090;6.074;2023-03-01T15:19:45;18.08;;;11.60;;
53108;SDS011;39007;53.090;6.074;2023-03-01T15:22:14;14.18;;;12.00;;
53108;SDS011;39007;53.090;6.074;2023-03-01T15:24:41;15.25;;;12.25;;
53108;SDS011;39007;53.090;6.074;2023-03-01T15:27:17;16.33;;;12.30;;
53108;SDS011;39007;53.090;6.074;2023-03-01T15:29:54;15.57;;;11.85;;
53108;SDS011;39007;53.090;6.074;2023-03-01T15:34:47;15.77;;;11.90;;
53108;SDS011;39007;53.090;6.074;2023-03-01T15:39:58;17.58;;;12.63;;
53108;SDS011;39007;53.090;6.074;2023-03-01T15:47:34;14.63;;;11.25;;
53108;SDS011;39007;53.090;6.074;2023-03-01T15:50:01;17.38;;;12.48;;
53108;SDS011;39007;53.090;6.074;2023-03-01T15:52:34;17.13;;;12.07;;
53108;SDS011;39007;53.090;6.074;2023-03-01T15:57:30;16.20;;;11.95;;
53108;SDS011;39007;53.090;6.074;2023-03-01T15:59:56;15.10;;;12.10;;
53108;SDS011;39007;53.090;6.074;2023-03-01T16:02:23;16.05;;;12.25;;
53108;SDS011;39007;53.090;6.074;2023-03-01T16:04:49;15.35;;;12.18;;
53108;SDS011;39007;53.090;6.074;2023-03-01T16:07:15;15.43;;;12.00;;
53108;SDS011;39007;53.090;6.074;2023-03-01T16:09:41;19.27;;;13.73;;
53108;SDS011;39007;53.090;6.074;2023-03-01T16:12:15;16.17;;;13.40;;
53108;SDS011;39007;53.090;6.074;2023-03-01T16:14:41;18.42;;;13.38;;
53108;SDS011;39007;53.090;6.074;2023-03-01T16:17:07;17.63;;;12.85;;
53108;SDS011;39007;53.090;6.074;2023-03-01T16:19:35;18.88;;;13.82;;
53108;SDS011;39007;53.090;6.074;2023-03-01T16:22:02;17.67;;;14.35;;
53108;SDS011;39007;53.090;6.074;2023-03-01T16:24:28;29.83;;;22.27;;